Time;durP1;ratioP1;P1;durP2;ratioP2;P2;SDS_P1;SDS_P2;PMS_P1;PMS_P2;Temp;Humidity;BMP_temperature;BMP_pressure;BME280_temperature;BME280_humidity;BME280_pressure;Samples;Min_cycle;Max_cycle;Signal;HPM_P1;HPM_P2
2022/10/25 00:00:52;;;;;;;0.00;0.00;;;;;;;13.55;71.49;99857.63;7361462;19;20006;-58
2022/10/25 00:03:18;;;;;;;0.00;0.00;;;;;;;13.36;71.43;99830.59;7358979;19;20018;-58
2022/10/25 00:05:43;;;;;;;0.00;0.00;;;;;;;13.52;71.08;99865.63;7359903;19;20035;-58
2022/10/25 00:08:09;;;;;;;0.00;0.00;;;;;;;13.52;71.24;99867.41;7364135;19;20632;-59
2022/10/25 00:10:35;;;;;;;0.00;0.00;;;;;;;13.49;70.99;99864.03;7366828;19;20002;-58
2022/10/25 00:13:00;;;;;;;0.05;0.05;;;;;;;13.46;71.36;99863.31;7366349;19;20011;-58
2022/10/25 00:15:26;;;;;;;0.00;0.00;;;;;;;13.44;70.88;99870.41;7366283;19;20041;-58
2022/10/25 00:17:51;;;;;;;0.10;0.10;;;;;;;13.33;71.30;99857.81;7367621;19;20006;-58
2022/10/25 00:20:18;;;;;;;0.00;0.00;;;;;;;13.41;71.53;99865.31;7365317;19;20006;-58
2022/10/25 00:22:43;;;;;;;0.00;0.00;;;;;;;13.29;71.88;99855.41;7367127;19;20488;-58
2022/10/25 00:25:09;;;;;;;0.00;0.00;;;;;;;13.37;71.31;99869.00;7364974;19;20015;-56
2022/10/25 00:27:35;;;;;;;0.00;0.00;;;;;;;13.37;71.84;99874.25;7367787;19;20007;-58
2022/10/25 00:30:01;;;;;;;0.00;0.00;;;;;;;13.37;71.98;99882.09;7364524;19;20824;-59
2022/10/25 00:32:26;;;;;;;0.00;0.00;;;;;;;13.36;71.59;99888.28;7368234;19;20070;-58
2022/10/25 00:34:52;;;;;;;0.00;0.00;;;;;;;13.34;71.41;99885.75;7365046;19;20014;-58
2022/10/25 00:37:17;;;;;;;0.08;0.08;;;;;;;13.33;71.44;99888.41;7366912;19;20002;-58
2022/10/25 00:39:44;;;;;;;0.00;0.00;;;;;;;13.33;71.31;99888.41;7362879;19;20098;-58
2022/10/25 00:42:18;;;;;;;0.00;0.00;;;;;;;13.27;70.95;99875.59;7365574;19;20021;-57
2022/10/25 00:44:58;;;;;;;0.00;0.00;;;;;;;13.30;71.03;99883.34;7365712;19;20070;-59
2022/10/25 00:47:42;;;;;;;0.00;0.00;;;;;;;13.27;71.04;99883.47;7366621;19;20015;-57
2022/10/25 00:50:19;;;;;;;0.00;0.00;;;;;;;13.26;71.34;99887.00;7364880;19;20524;-58
2022/10/25 00:52:47;;;;;;;0.10;0.10;;;;;;;13.10;71.31;99861.47;7366252;19;20017;-58
2022/10/25 00:55:16;;;;;;;0.05;0.05;;;;;;;13.09;71.61;99870.28;7364644;19;20070;-58
2022/10/25 00:58:01;;;;;;;0.00;0.00;;;;;;;13.20;70.64;99893.34;7365543;19;20522;-58
2022/10/25 01:00:26;;;;;;;0.00;0.00;;;;;;;13.18;71.41;99893.44;7364600;19;20005;-58
2022/10/25 01:02:52;;;;;;;0.10;0.10;;;;;;;13.11;71.62;99894.63;7363287;19;20006;-58
2022/10/25 01:05:19;;;;;;;0.00;0.00;;;;;;;13.15;70.91;99901.44;7364446;19;20897;-58
2022/10/25 01:07:44;;;;;;;0.00;0.00;;;;;;;13.12;71.46;99898.94;7364814;19;20707;-58
2022/10/25 01:10:11;;;;;;;0.00;0.00;;;;;;;13.11;71.57;99905.13;7362546;19;20006;-58
2022/10/25 01:12:36;;;;;;;0.00;0.00;;;;;;;12.94;71.69;99876.22;7365308;19;20077;-58
2022/10/25 01:15:03;;;;;;;0.00;0.00;;;;;;;13.07;71.89;99908.78;7364403;19;20398;-58
2022/10/25 01:17:52;;;;;;;0.00;0.00;;;;;;;13.08;71.27;99910.50;7363119;19;20086;-58
2022/10/25 01:20:29;;;;;;;0.00;0.00;;;;;;;13.06;71.37;99917.56;7264217;19;2004210;-58
2022/10/25 01:23:04;;;;;;;0.00;0.00;;;;;;;13.04;71.56;99915.97;7365649;19;21264;-58
2022/10/25 01:25:55;;;;;;;0.00;0.00;;;;;;;13.02;71.41;99926.50;7362094;19;20010;-57
2022/10/25 01:29:08;;;;;;;0.00;0.00;;;;;;;12.92;70.91;99915.56;7263130;19;2004385;-58
2022/10/25 01:31:59;;;;;;;0.00;0.00;;;;;;;12.98;71.02;99935.44;7262377;19;2004213;-58
2022/10/25 01:34:40;;;;;;;0.00;0.00;;;;;;;12.93;71.51;99933.03;7362035;19;20014;-58
2022/10/25 01:37:16;;;;;;;0.00;0.00;;;;;;;12.92;71.18;99936.53;7365522;19;20030;-58
2022/10/25 01:39:47;;;;;;;0.10;0.10;;;;;;;12.89;71.68;99935.84;7363118;19;20025;-58
2022/10/25 01:42:15;;;;;;;0.00;0.00;;;;;;;12.88;71.62;99939.38;7362927;19;20899;-58
2022/10/25 01:44:59;;;;;;;0.10;0.10;;;;;;;12.88;71.41;99939.38;7365895;19;20015;-58
2022/10/25 01:47:31;;;;;;;0.00;0.00;;;;;;;12.79;71.94;99929.31;7366776;19;20011;-58
2022/10/25 01:50:01;;;;;;;0.00;0.00;;;;;;;12.83;71.67;99936.13;7364350;19;20017;-59
2022/10/25 01:52:27;;;;;;;0.00;0.00;;;;;;;12.78;72.21;99927.63;7365899;19;20378;-58
2022/10/25 01:54:52;;;;;;;0.00;0.00;;;;;;;12.81;72.15;99943.19;7366153;19;20010;-58
2022/10/25 01:57:55;;;;;;;0.10;0.10;;;;;;;12.83;71.83;99936.13;7364821;19;20455;-58
2022/10/25 02:00:22;;;;;;;0.10;0.10;;;;;;;12.78;72.10;99941.56;7262078;19;2004224;-58
2022/10/25 02:03:04;;;;;;;0.00;0.00;;;;;;;12.79;71.49;99939.78;7366041;19;20580;-59
2022/10/25 02:06:04;;;;;;;0.00;0.00;;;;;;;12.79;71.36;99951.13;7361454;19;20010;-58
2022/10/25 02:09:12;;;;;;;0.00;0.00;;;;;;;12.78;71.60;99952.03;7260928;19;2004293;-59
2022/10/25 02:11:38;;;;;;;0.00;0.00;;;;;;;12.72;72.17;99941.81;7259385;19;2004213;-58
2022/10/25 02:14:28;;;;;;;0.00;0.00;;;;;;;12.75;71.64;99948.69;7359990;19;20014;-58
2022/10/25 02:17:03;;;;;;;0.00;0.00;;;;;;;12.74;71.98;99947.84;7260803;19;2004830;-58
2022/10/25 02:19:42;;;;;;;0.00;0.00;;;;;;;12.69;71.72;99944.56;7361250;19;20041;-58
2022/10/25 02:22:11;;;;;;;0.00;0.00;;;;;;;12.59;71.70;99933.66;7363281;19;20462;-58
2022/10/25 02:24:38;;;;;;;0.10;0.10;;;;;;;12.57;72.10;99929.38;7362546;19;20509;-58
2022/10/25 02:27:05;;;;;;;0.00;0.00;;;;;;;12.66;72.39;99944.69;7363869;19;20006;-58
2022/10/25 02:29:33;;;;;;;0.00;0.00;;;;;;;12.69;72.04;99944.56;7360064;19;20022;-58
2022/10/25 02:31:58;;;;;;;0.00;0.00;;;;;;;12.66;72.21;99942.94;7360818;19;20571;-58
2022/10/25 02:34:24;;;;;;;0.00;0.00;;;;;;;12.63;72.64;99927.34;7362806;19;20018;-57
2022/10/25 02:36:51;;;;;;;0.00;0.00;;;;;;;12.43;72.35;99895.94;7363247;19;20010;-58
2022/10/25 02:39:18;;;;;;;;;;;;;;;12.72;71.13;99940.06;7364943;19;20470;-58
2022/10/25 02:41:43;;;;;;;0.00;0.00;;;;;;;12.67;72.14;99936.78;7362107;19;19923;-59
2022/10/25 02:44:09;;;;;;;0.10;0.10;;;;;;;12.64;72.29;99929.06;7362717;19;20035;-58
2022/10/25 02:46:34;;;;;;;0.00;0.00;;;;;;;12.68;72.53;99933.25;7358910;19;20017;-58
2022/10/25 02:48:59;;;;;;;0.10;0.10;;;;;;;12.68;72.47;99937.63;7362693;19;20029;-59
2022/10/25 02:51:25;;;;;;;0.00;0.00;;;;;;;12.67;72.42;99930.66;7360212;19;20010;-58
2022/10/25 02:53:50;;;;;;;0.03;0.03;;;;;;;12.67;72.23;99926.31;7363592;19;20986;-59
2022/10/25 02:56:18;;;;;;;0.00;0.00;;;;;;;12.65;71.92;99919.44;7365025;19;20003;-58
2022/10/25 02:58:45;;;;;;;0.00;0.00;;;;;;;12.67;72.53;99931.56;7361035;19;20051;-58
2022/10/25 03:01:12;;;;;;;0.00;0.00;;;;;;;12.66;71.81;99924.59;7362361;19;20030;-57
2022/10/25 03:03:38;;;;;;;0.07;0.07;;;;;;;12.64;71.78;99920.34;7354988;19;20011;-58
2022/10/25 03:06:05;;;;;;;0.00;0.00;;;;;;;12.64;72.08;99915.97;7359086;19;20022;-58
2022/10/25 03:08:31;;;;;;;0.00;0.00;;;;;;;12.62;72.01;99917.81;7364212;19;20134;-59
2022/10/25 03:10:56;;;;;;;0.10;0.10;;;;;;;12.63;71.99;99923.88;7361625;19;20111;-56
2022/10/25 03:13:22;;;;;;;0.00;0.00;;;;;;;12.61;72.20;99921.31;7361734;19;20019;-56
2022/10/25 03:15:47;;;;;;;0.10;0.10;;;;;;;12.60;72.10;99921.41;7363023;19;20007;-58
2022/10/25 03:18:13;;;;;;;0.03;0.03;;;;;;;12.57;72.53;99919.78;7364403;19;20014;-57
2022/10/25 03:20:39;;;;;;;0.03;0.03;;;;;;;12.57;72.52;99924.13;7355148;19;21079;-58
2022/10/25 03:23:05;;;;;;;0.00;0.00;;;;;;;12.56;72.31;99919.81;7359671;19;20010;-58
2022/10/25 03:25:30;;;;;;;0.00;0.00;;;;;;;12.43;72.44;99906.41;7365309;19;20082;-58
2022/10/25 03:27:56;;;;;;;0.00;0.00;;;;;;;12.52;71.99;99916.50;7362188;19;20003;-58
2022/10/25 03:30:21;;;;;;;0.10;0.10;;;;;;;12.51;71.94;99908.69;7364850;19;20023;-58
2022/10/25 03:32:47;;;;;;;0.00;0.00;;;;;;;12.45;71.83;99905.41;7359997;19;20010;-58
2022/10/25 03:35:12;;;;;;;0.00;0.00;;;;;;;12.44;71.53;99906.34;7364525;19;20011;-58
2022/10/25 03:37:37;;;;;;;0.00;0.00;;;;;;;12.46;72.21;99912.34;7362599;19;20821;-58
2022/10/25 03:40:03;;;;;;;0.10;0.10;;;;;;;12.36;72.29;99900.56;7363536;19;20013;-58
2022/10/25 03:42:29;;;;;;;0.10;0.10;;;;;;;12.45;72.33;99920.28;7357351;19;20022;-59
2022/10/25 03:44:54;;;;;;;0.00;0.00;;;;;;;12.43;72.44;99911.66;7362829;19;20034;-58
2022/10/25 03:47:19;;;;;;;0.00;0.00;;;;;;;12.40;72.40;99917.00;7361434;19;20671;-58
2022/10/25 03:49:45;;;;;;;0.00;0.00;;;;;;;12.40;72.21;99917.00;7364199;19;20006;-58
2022/10/25 03:52:10;;;;;;;0.00;0.00;;;;;;;12.39;72.08;99910.06;7359576;19;20014;-58
2022/10/25 03:54:36;;;;;;;0.00;0.00;;;;;;;12.37;72.18;99911.94;7362001;19;20031;-58
2022/10/25 03:57:02;;;;;;;0.10;0.10;;;;;;;12.26;71.93;99898.41;7360673;19;19995;-58
2022/10/25 03:59:27;;;;;;;0.00;0.00;;;;;;;12.34;72.33;99906.81;7362093;19;20007;-58
2022/10/25 04:01:53;;;;;;;0.00;0.00;;;;;;;12.30;71.81;99910.47;7360312;19;20868;-58
2022/10/25 04:04:18;;;;;;;0.10;0.10;;;;;;;12.31;72.20;99912.16;7362138;19;20010;-58
2022/10/25 04:06:44;;;;;;;0.08;0.08;;;;;;;12.30;71.73;99910.47;7363296;19;20114;-58
2022/10/25 04:09:09;;;;;;;0.00;0.00;;;;;;;12.29;72.03;99916.63;7362231;19;20546;-58
2022/10/25 04:11:35;;;;;;;0.00;0.00;;;;;;;12.27;72.08;99910.63;7362260;19;20033;-58
2022/10/25 04:14:00;;;;;;;0.10;0.10;;;;;;;12.10;72.04;99888.59;7359669;19;20002;-58
2022/10/25 04:16:26;;;;;;;0.00;0.00;;;;;;;12.25;72.06;99908.03;7362252;19;20011;-58
2022/10/25 04:18:52;;;;;;;0.00;0.00;;;;;;;12.23;72.42;99899.41;7357864;19;20018;-58
2022/10/25 04:21:19;;;;;;;0.10;0.10;;;;;;;12.22;72.63;99902.09;7360373;19;20506;-58
2022/10/25 04:23:44;;;;;;;0.05;0.05;;;;;;;12.17;72.42;99911.00;7361496;19;20103;-58
2022/10/25 04:26:10;;;;;;;0.00;0.00;;;;;;;12.16;72.33;99911.03;7361506;19;20466;-58
2022/10/25 04:28:35;;;;;;;0.00;0.00;;;;;;;12.14;72.33;99905.88;7358728;19;20015;-57
2022/10/25 04:31:02;;;;;;;0.00;0.00;;;;;;;12.14;72.37;99911.13;7361385;19;20051;-56
2022/10/25 04:33:27;;;;;;;0.00;0.00;;;;;;;12.08;72.67;99908.75;7360417;19;20014;-58
2022/10/25 04:35:56;;;;;;;0.00;0.00;;;;;;;12.10;72.83;99904.28;7362236;19;20011;-58
2022/10/25 04:38:22;;;;;;;0.00;0.00;;;;;;;11.95;73.04;99884.00;7361173;19;20025;-58
2022/10/25 04:40:59;;;;;;;0.00;0.00;;;;;;;12.04;72.58;99894.09;7361619;19;20027;-56
2022/10/25 04:43:27;;;;;;;0.00;0.00;;;;;;;12.02;72.75;99900.31;7359307;19;20002;-58
2022/10/25 04:45:53;;;;;;;0.00;0.00;;;;;;;11.99;73.15;99900.44;7361511;19;20014;-58
2022/10/25 04:48:19;;;;;;;0.00;0.00;;;;;;;11.99;72.80;99916.13;7359160;19;20655;-58
2022/10/25 04:50:45;;;;;;;0.10;0.10;;;;;;;11.96;73.24;99911.84;7360668;19;20473;-57
2022/10/25 04:53:10;;;;;;;0.10;0.10;;;;;;;11.94;73.24;99916.31;7363220;19;20014;-61
2022/10/25 04:55:36;;;;;;;0.03;0.03;;;;;;;11.92;72.86;99926.00;7365637;19;20012;-58
2022/10/25 04:58:02;;;;;;;0.00;0.00;;;;;;;11.79;73.39;99906.44;7368113;19;20025;-58
2022/10/25 05:00:27;;;;;;;0.00;0.00;;;;;;;11.85;73.17;99930.63;7368565;19;20640;-58
2022/10/25 05:02:54;;;;;;;0.00;0.00;;;;;;;11.86;73.52;99932.34;7365086;19;20014;-57
2022/10/25 05:05:21;;;;;;;0.00;0.00;;;;;;;11.84;73.12;99930.69;7368227;19;20014;-58
2022/10/25 05:07:47;;;;;;;0.00;0.00;;;;;;;11.82;73.56;99935.13;7367510;19;20025;-58
2022/10/25 05:10:12;;;;;;;0.00;0.00;;;;;;;11.64;73.31;99913.13;7366065;19;20006;-58
2022/10/25 05:12:37;;;;;;;0.00;0.00;;;;;;;11.75;73.27;99931.00;7366376;19;20014;-58
2022/10/25 05:15:04;;;;;;;0.00;0.00;;;;;;;11.74;73.50;99938.00;7364277;19;20049;-58
2022/10/25 05:17:29;;;;;;;0.00;0.00;;;;;;;11.73;73.64;99940.69;7367842;19;20011;-57
2022/10/25 05:19:55;;;;;;;0.00;0.00;;;;;;;11.65;73.67;99933.13;7365588;19;20037;-56
2022/10/25 05:22:20;;;;;;;0.00;0.00;;;;;;;11.56;73.27;99923.06;7364843;19;20010;-58
2022/10/25 05:24:46;;;;;;;0.00;0.00;;;;;;;11.59;73.63;99933.38;7366962;19;20450;-58
2022/10/25 05:27:11;;;;;;;0.00;0.00;;;;;;;11.67;73.81;99949.63;7363288;19;20029;-59
2022/10/25 05:29:36;;;;;;;0.10;0.10;;;;;;;11.59;73.95;99934.22;7366519;19;20011;-58
2022/10/25 05:32:02;;;;;;;0.00;0.00;;;;;;;11.60;73.58;99935.94;7366864;19;20390;-58
2022/10/25 05:34:28;;;;;;;0.00;0.00;;;;;;;11.59;73.44;99936.84;7366342;19;20018;-58
2022/10/25 05:36:53;;;;;;;0.10;0.10;;;;;;;11.62;73.55;99941.97;7364738;19;20010;-58
2022/10/25 05:39:18;;;;;;;0.00;0.00;;;;;;;11.46;73.52;99921.72;7365887;19;20355;-58
2022/10/25 05:41:44;;;;;;;0.03;0.03;;;;;;;11.62;73.24;99944.59;7367387;19;20022;-59
2022/10/25 05:44:09;;;;;;;0.00;0.00;;;;;;;11.49;73.62;99913.72;7366125;19;20022;-58
2022/10/25 05:46:35;;;;;;;0.00;0.00;;;;;;;11.53;73.55;99924.00;7365495;19;20351;-59
2022/10/25 05:49:00;;;;;;;0.00;0.00;;;;;;;11.65;73.21;99939.22;7364784;19;21129;-58
2022/10/25 05:51:29;;;;;;;0.00;0.00;;;;;;;11.67;73.29;99936.56;7367258;19;20007;-59
2022/10/25 05:53:57;;;;;;;0.00;0.00;;;;;;;11.69;73.49;99940.81;7365850;19;21575;-56
2022/10/25 05:56:26;;;;;;;0.00;0.00;;;;;;;11.69;73.43;99925.13;7365600;19;20768;-58
2022/10/25 05:58:51;;;;;;;0.00;0.00;;;;;;;11.73;73.22;99930.22;7356344;19;21350;-58
2022/10/25 06:01:20;;;;;;;0.00;0.00;;;;;;;11.76;73.70;99925.75;7361892;19;20018;-58
2022/10/25 06:03:53;;;;;;;0.00;0.00;;;;;;;11.81;73.01;99929.03;7363152;19;20010;-58
2022/10/25 06:06:19;;;;;;;0.00;0.00;;;;;;;11.81;73.45;99922.91;7363323;19;20012;-58
2022/10/25 06:08:45;;;;;;;0.00;0.00;;;;;;;11.68;73.44;99899.88;7366121;19;22416;-57
2022/10/25 06:11:16;;;;;;;0.00;0.00;;;;;;;11.87;73.51;99912.25;7364676;19;20006;-58
2022/10/25 06:13:42;;;;;;;0.00;0.00;;;;;;;11.88;73.58;99925.28;7361694;19;20007;-58
2022/10/25 06:16:10;;;;;;;0.00;0.00;;;;;;;11.94;73.55;99924.16;7361835;19;20010;-58
2022/10/25 06:18:39;;;;;;;0.00;0.00;;;;;;;11.94;73.52;99914.53;7363128;19;20048;-58
2022/10/25 06:21:13;;;;;;;0.00;0.00;;;;;;;11.96;73.36;99917.09;7361956;19;20454;-58
2022/10/25 06:23:39;;;;;;;0.10;0.10;;;;;;;12.01;73.30;99915.13;7363464;19;20010;-56
2022/10/25 06:26:08;;;;;;;0.10;0.10;;;;;;;12.00;73.45;99908.22;7362224;19;20097;-59
2022/10/25 06:28:34;;;;;;;0.10;0.10;;;;;;;12.06;73.45;99923.66;7359398;19;20014;-58
2022/10/25 06:31:05;;;;;;;0.00;0.00;;;;;;;12.09;73.17;99918.31;7360919;19;20018;-57
2022/10/25 06:33:31;;;;;;;0.00;0.00;;;;;;;12.07;73.49;99935.84;7361528;19;20010;-58
2022/10/25 06:35:57;;;;;;;0.00;0.00;;;;;;;12.10;73.65;99940.09;7360674;19;20006;-56
2022/10/25 06:38:23;;;;;;;0.00;0.00;;;;;;;12.09;73.28;99933.16;7357053;19;20002;-58
2022/10/25 06:40:49;;;;;;;0.00;0.00;;;;;;;12.09;73.51;99928.78;7361854;19;20010;-58
2022/10/25 06:43:14;;;;;;;0.00;0.00;;;;;;;11.95;73.41;99904.94;7355647;19;20013;-58
2022/10/25 06:45:40;;;;;;;0.00;0.00;;;;;;;12.10;73.39;99930.47;7361976;19;20642;-58
2022/10/25 06:48:06;;;;;;;0.03;0.03;;;;;;;12.04;73.23;99920.25;7353186;19;20010;-58
2022/10/25 06:50:31;;;;;;;0.00;0.00;;;;;;;12.08;73.43;99921.00;7360397;19;20038;-58
2022/10/25 06:52:57;;;;;;;0.00;0.00;;;;;;;12.08;73.76;99921.00;7359308;19;20015;-58
2022/10/25 06:55:22;;;;;;;0.00;0.00;;;;;;;12.00;73.29;99917.81;7363097;19;20006;-58
2022/10/25 06:57:48;;;;;;;0.10;0.10;;;;;;;12.06;73.64;99928.03;7363219;19;20013;-57
2022/10/25 07:00:13;;;;;;;0.10;0.10;;;;;;;12.03;73.38;99928.19;7363384;19;20006;-58
2022/10/25 07:02:39;;;;;;;0.00;0.00;;;;;;;12.06;73.28;99934.13;7360388;19;20642;-56
2022/10/25 07:05:04;;;;;;;0.00;0.00;;;;;;;12.04;73.40;99922.88;7354188;19;20036;-58
2022/10/25 07:07:30;;;;;;;0.05;0.05;;;;;;;12.07;73.51;99929.75;7355117;19;20017;-58
2022/10/25 07:09:55;;;;;;;0.00;0.00;;;;;;;11.96;73.59;99914.47;7344100;19;20798;-57
2022/10/25 07:12:21;;;;;;;0.00;0.00;;;;;;;12.12;73.31;99933.88;7353381;19;20007;-58
2022/10/25 07:14:46;;;;;;;0.10;0.10;;;;;;;12.14;73.34;99931.19;7355207;19;20449;-58
2022/10/25 07:17:11;;;;;;;0.00;0.00;;;;;;;12.16;73.21;99935.44;7359157;19;20082;-58
2022/10/25 07:19:37;;;;;;;0.00;0.00;;;;;;;12.18;73.25;99938.88;7360742;19;20363;-58
2022/10/25 07:22:02;;;;;;;0.00;0.00;;;;;;;12.20;73.33;99939.63;7358347;19;20009;-58
2022/10/25 07:24:27;;;;;;;0.00;0.00;;;;;;;12.02;73.13;99906.41;7355938;19;20031;-58
2022/10/25 07:26:53;;;;;;;0.00;0.00;;;;;;;12.26;73.30;99940.31;7361887;19;20829;-58
2022/10/25 07:29:18;;;;;;;0.00;0.00;;;;;;;12.27;73.28;99942.03;7362205;19;20014;-58
2022/10/25 07:31:44;;;;;;;0.00;0.00;;;;;;;12.27;73.47;99947.25;7361052;19;20029;-58
2022/10/25 07:34:15;;;;;;;0.00;0.00;;;;;;;12.32;73.03;99948.78;7357824;19;20850;-56
2022/10/25 07:36:40;;;;;;;0.00;0.00;;;;;;;12.32;73.05;99945.31;7360925;19;20014;-58
2022/10/25 07:39:06;;;;;;;0.00;0.00;;;;;;;12.34;73.53;99948.69;7356077;19;21519;-57
2022/10/25 07:41:31;;;;;;;0.00;0.00;;;;;;;12.19;73.48;99924.84;7359151;19;20026;-58
2022/10/25 07:43:57;;;;;;;0.10;0.10;;;;;;;12.36;73.09;99950.31;7362093;19;20019;-58
2022/10/25 07:46:23;;;;;;;0.10;0.10;;;;;;;12.37;73.51;99953.81;7359668;19;20018;-58
2022/10/25 07:48:48;;;;;;;0.05;0.05;;;;;;;12.35;73.57;99945.16;7354269;19;20011;-58
2022/10/25 07:51:15;;;;;;;0.10;0.10;;;;;;;12.34;73.49;99944.31;7353289;19;20090;-58
2022/10/25 07:53:41;;;;;;;0.00;0.00;;;;;;;12.45;73.58;99951.72;7351872;19;20682;-57
2022/10/25 07:56:11;;;;;;;0.00;0.00;;;;;;;12.49;73.46;99955.91;7349831;19;20014;-58
2022/10/25 07:58:36;;;;;;;0.03;0.03;;;;;;;12.52;73.22;99958.41;7346259;19;20037;-58
2022/10/25 08:01:04;;;;;;;0.00;0.00;;;;;;;12.57;73.20;99953.81;7358674;19;20339;-57
2022/10/25 08:03:30;;;;;;;0.00;0.00;;;;;;;12.60;73.52;99951.06;7351427;19;20833;-58
2022/10/25 08:05:55;;;;;;;0.00;0.00;;;;;;;12.66;73.27;99950.78;7353686;19;20021;-57
2022/10/25 08:08:22;;;;;;;0.00;0.00;;;;;;;12.73;73.17;99948.78;7351482;19;20018;-58
2022/10/25 08:10:48;;;;;;;0.00;0.00;;;;;;;12.72;73.45;99940.06;7356844;19;20014;-58
2022/10/25 08:13:13;;;;;;;0.00;0.00;;;;;;;12.89;73.27;99962.03;7354455;19;20014;-58
2022/10/25 08:15:39;;;;;;;0.00;0.00;;;;;;;12.95;73.46;99957.38;7355829;19;20015;-58
2022/10/25 08:18:06;;;;;;;0.03;0.03;;;;;;;13.03;73.38;99959.66;7353558;19;20019;-58
2022/10/25 08:20:32;;;;;;;0.00;0.00;;;;;;;13.10;73.27;99958.47;7353572;19;20350;-58
2022/10/25 08:22:58;;;;;;;0.10;0.10;;;;;;;13.18;73.58;99958.13;7353104;19;20014;-57
2022/10/25 08:25:26;;;;;;;0.00;0.00;;;;;;;13.24;73.56;99948.25;7353445;19;21540;-59
2022/10/25 08:27:52;;;;;;;0.00;0.00;;;;;;;13.19;73.15;99933.63;7355702;19;20022;-58
2022/10/25 08:30:17;;;;;;;0.00;0.00;;;;;;;13.39;73.39;99951.09;7360040;19;20011;-57
2022/10/25 08:32:43;;;;;;;0.10;0.10;;;;;;;13.36;73.61;99943.34;7356638;19;20011;-59
2022/10/25 08:35:08;;;;;;;0.00;0.00;;;;;;;13.50;73.26;99949.66;7355306;19;20010;-58
2022/10/25 08:37:33;;;;;;;0.03;0.03;;;;;;;13.60;73.24;99952.69;7354847;19;20018;-58
2022/10/25 08:39:59;;;;;;;0.00;0.00;;;;;;;13.68;73.22;99957.56;7360006;19;20497;-57
2022/10/25 08:42:42;;;;;;;0.00;0.00;;;;;;;13.74;73.34;99942.41;7363534;19;20011;-58
2022/10/25 08:45:25;;;;;;;0.00;0.00;;;;;;;13.88;73.26;99959.25;7358845;19;20018;-57
2022/10/25 08:47:53;;;;;;;0.00;0.00;;;;;;;13.93;73.14;99962.50;7357734;19;20011;-58
2022/10/25 08:50:25;;;;;;;0.10;0.10;;;;;;;14.01;72.88;99965.63;7360263;19;20483;-58
2022/10/25 08:53:00;;;;;;;0.05;0.05;;;;;;;14.10;73.15;99953.81;7358641;19;20019;-58
2022/10/25 08:55:33;;;;;;;0.00;0.00;;;;;;;14.17;72.94;99950.81;7359115;19;20006;-58
2022/10/25 08:58:01;;;;;;;0.00;0.00;;;;;;;14.22;73.06;99954.06;7358123;19;20006;-58
2022/10/25 09:00:36;;;;;;;0.00;0.00;;;;;;;14.32;73.03;99946.56;7359317;19;20464;-58
2022/10/25 09:03:03;;;;;;;0.00;0.00;;;;;;;14.39;72.71;99952.34;7359424;19;20020;-58
2022/10/25 09:05:39;;;;;;;0.00;0.00;;;;;;;14.50;73.09;99952.72;7358650;19;20797;-58
2022/10/25 09:08:28;;;;;;;0.00;0.00;;;;;;;14.61;72.55;99944.28;7356003;19;20492;-58
2022/10/25 09:11:08;;;;;;;0.10;0.10;;;;;;;14.69;72.53;99942.94;7358795;19;20010;-58
2022/10/25 09:13:48;;;;;;;0.00;0.00;;;;;;;14.86;73.10;99947.34;7358034;19;20006;-58
2022/10/25 09:16:50;;;;;;;0.00;0.00;;;;;;;15.08;72.72;99954.09;7351258;19;20011;-58
2022/10/25 09:19:49;;;;;;;0.00;0.00;;;;;;;15.28;72.41;99952.09;7251338;19;2004247;-58
2022/10/25 09:22:54;;;;;;;0.00;0.00;;;;;;;15.50;72.20;99961.44;7239927;19;2004513;-57
2022/10/25 09:25:34;;;;;;;0.00;0.00;;;;;;;15.65;71.88;99955.34;7248651;19;2004339;-59
2022/10/25 09:28:07;;;;;;;0.10;0.10;;;;;;;15.83;71.82;99956.97;7353417;19;20003;-58
2022/10/25 09:30:42;;;;;;;0.10;0.10;;;;;;;16.05;71.90;99963.66;7355757;19;20010;-58
2022/10/25 09:33:18;;;;;;;0.08;0.08;;;;;;;16.19;71.43;99954.97;7349033;19;20018;-57
2022/10/25 09:35:46;;;;;;;0.10;0.10;;;;;;;16.30;70.60;99953.41;7346910;19;20671;-58
2022/10/25 09:38:18;;;;;;;0.10;0.10;;;;;;;16.47;70.79;99944.50;7351731;19;20015;-58
2022/10/25 09:40:48;;;;;;;0.08;0.08;;;;;;;16.60;69.99;99949.91;7351374;19;20062;-56
2022/10/25 09:43:17;;;;;;;0.05;0.05;;;;;;;16.75;70.26;99950.81;7353426;19;20011;-58
2022/10/25 09:45:48;;;;;;;0.08;0.08;;;;;;;16.89;70.17;99949.97;7353479;19;20018;-58
2022/10/25 09:48:38;;;;;;;0.00;0.00;;;;;;;17.08;70.46;99961.94;7355339;19;20027;-58
2022/10/25 09:51:35;;;;;;;0.00;0.00;;;;;;;17.22;69.84;99960.22;7354130;19;21206;-58
2022/10/25 09:54:14;;;;;;;0.00;0.00;;;;;;;17.25;68.93;99958.25;7252024;19;2004408;-57
2022/10/25 09:56:39;;;;;;;0.00;0.00;;;;;;;17.24;68.71;99961.84;7353202;19;20418;-59
2022/10/25 09:59:04;;;;;;;0.03;0.03;;;;;;;17.25;68.14;99963.53;7353870;19;20034;-58
2022/10/25 10:01:31;;;;;;;0.10;0.10;;;;;;;17.28;68.56;99957.22;7352423;19;20018;-58
2022/10/25 10:04:18;;;;;;;0.00;0.00;;;;;;;17.31;68.71;99967.59;7352369;19;20019;-58
2022/10/25 10:06:46;;;;;;;0.10;0.10;;;;;;;17.21;67.90;99954.13;7247323;19;2004437;-58
2022/10/25 10:09:14;;;;;;;0.03;0.03;;;;;;;17.19;67.70;99957.81;7353890;19;20007;-58
2022/10/25 10:11:40;;;;;;;0.08;0.08;;;;;;;17.16;67.76;99953.53;7356842;19;20069;-58
2022/10/25 10:14:25;;;;;;;0.10;0.10;;;;;;;17.08;68.91;99935.56;7354202;19;19998;-58
2022/10/25 10:16:55;;;;;;;0.10;0.10;;;;;;;17.05;68.44;99934.91;7355690;19;20941;-58
2022/10/25 10:19:25;;;;;;;0.00;0.00;;;;;;;17.18;68.46;99953.44;7351752;19;20754;-58
2022/10/25 10:22:06;;;;;;;0.10;0.10;;;;;;;17.24;68.61;99951.28;7351803;19;20014;-57
2022/10/25 10:24:36;;;;;;;0.10;0.10;;;;;;;17.27;68.72;99945.81;7354239;19;19998;-58
2022/10/25 10:27:19;;;;;;;0.10;0.10;;;;;;;17.48;69.24;99948.03;7353510;19;20006;-58
2022/10/25 10:29:56;;;;;;;0.10;0.10;;;;;;;17.54;68.98;99921.28;7353110;19;21331;-58
2022/10/25 10:32:31;;;;;;;0.10;0.10;;;;;;;17.88;68.53;99931.38;7353927;19;20770;-58
2022/10/25 10:34:57;;;;;;;0.10;0.10;;;;;;;18.00;68.51;99892.75;7354067;19;20009;-58
2022/10/25 10:37:31;;;;;;;0.10;0.10;;;;;;;18.62;68.26;99926.47;7352568;19;20033;-58
2022/10/25 10:40:23;;;;;;;0.10;0.10;;;;;;;18.88;68.18;99930.84;7354362;19;20383;-58
2022/10/25 10:42:49;;;;;;;0.00;0.00;;;;;;;18.92;64.95;99932.31;7244837;19;2004255;-58
2022/10/25 10:45:18;;;;;;;0.10;0.10;;;;;;;19.08;65.12;99928.59;7350538;19;20017;-58
2022/10/25 10:47:50;;;;;;;0.00;0.00;;;;;;;19.15;65.24;99930.69;7352671;19;20022;-57
2022/10/25 10:50:21;;;;;;;0.10;0.10;;;;;;;19.23;64.97;99927.50;7349806;19;20883;-58
2022/10/25 10:52:52;;;;;;;0.00;0.00;;;;;;;19.34;65.18;99930.25;7347631;19;20013;-58
2022/10/25 10:55:23;;;;;;;0.10;0.10;;;;;;;19.35;63.76;99921.34;7346708;19;20332;-59
2022/10/25 10:57:51;;;;;;;0.10;0.10;;;;;;;19.38;63.69;99926.41;7346780;19;20018;-58
2022/10/25 11:00:29;;;;;;;0.10;0.10;;;;;;;19.44;64.57;99930.44;7352123;19;20029;-58
2022/10/25 11:02:54;;;;;;;0.10;0.10;;;;;;;19.38;63.37;99922.94;7344632;19;20417;-59
2022/10/25 11:05:34;;;;;;;0.10;0.10;;;;;;;19.47;64.63;99924.94;7349295;19;20025;-58
2022/10/25 11:07:59;;;;;;;0.10;0.10;;;;;;;19.43;63.15;99923.44;7340268;19;20010;-58
2022/10/25 11:10:30;;;;;;;0.10;0.10;;;;;;;19.53;63.75;99918.34;7349069;19;24841;-58
2022/10/25 11:13:09;;;;;;;0.00;0.00;;;;;;;19.62;64.62;99923.00;7346805;19;20019;-58
2022/10/25 11:16:07;;;;;;;0.10;0.10;;;;;;;19.75;64.62;99923.78;7348255;19;20665;-58
2022/10/25 11:18:41;;;;;;;0.10;0.10;;;;;;;19.87;63.06;99920.25;7244331;19;2004620;-58
2022/10/25 11:21:44;;;;;;;0.10;0.10;;;;;;;20.18;64.82;99912.66;7345497;19;20010;-58
2022/10/25 11:24:24;;;;;;;0.10;0.10;;;;;;;20.44;64.19;99911.53;7246856;19;2004314;-58
2022/10/25 11:26:58;;;;;;;0.10;0.10;;;;;;;20.76;63.71;99916.19;7346964;19;20010;-58
2022/10/25 11:29:55;;;;;;;0.10;0.10;;;;;;;21.10;63.50;99906.44;7346887;19;20007;-58
2022/10/25 11:32:39;;;;;;;0.10;0.10;;;;;;;21.34;60.67;99916.97;7246320;19;2004358;-59
2022/10/25 11:35:42;;;;;;;0.10;0.10;;;;;;;21.84;63.48;99909.34;7346910;19;20045;-58
2022/10/25 11:38:26;;;;;;;0.10;0.10;;;;;;;22.11;57.81;99914.22;7242142;19;2004339;-58
2022/10/25 11:41:16;;;;;;;0.10;0.10;;;;;;;22.22;59.04;99886.75;7346589;19;20017;-58
2022/10/25 11:43:51;;;;;;;0.10;0.10;;;;;;;22.48;56.28;99909.31;7347543;19;20006;-58
2022/10/25 11:46:58;;;;;;;0.10;0.10;;;;;;;22.70;57.70;99904.81;7346734;19;20017;-59